createdAt,value
2023-05-04T00:00:02.638Z,102216.13
2023-05-04T00:02:31.130Z,102215.78
2023-05-04T00:04:57.730Z,102206.94
2023-05-04T00:07:24.232Z,102210.22
2023-05-04T00:09:50.773Z,102208.00
2023-05-04T00:12:17.703Z,102208.31
2023-05-04T00:14:44.175Z,102200.81
2023-05-04T00:17:11.042Z,102210.09
2023-05-04T00:19:39.322Z,102212.69
2023-05-04T00:22:05.743Z,102200.06
2023-05-04T00:24:32.166Z,102201.41
2023-05-04T00:26:58.603Z,102200.94
2023-05-04T00:29:25.027Z,102204.63
2023-05-04T00:31:51.523Z,102193.78
2023-05-04T00:34:18.456Z,102191.00
2023-05-04T00:36:44.900Z,102195.72
2023-05-04T00:39:13.054Z,102201.75
2023-05-04T00:41:39.485Z,102201.91
2023-05-04T00:44:06.409Z,102196.56
2023-05-04T00:46:33.864Z,102190.59
2023-05-04T00:49:00.357Z,102189.53
2023-05-04T00:51:27.219Z,102192.31
2023-05-04T00:53:55.355Z,102187.63
2023-05-04T00:56:25.796Z,102185.88
2023-05-04T00:58:54.328Z,102187.19
2023-05-04T01:01:22.335Z,102186.41
2023-05-04T01:03:50.845Z,102187.66
2023-05-04T01:06:44.086Z,102180.22
2023-05-04T01:09:31.436Z,102175.31
2023-05-04T01:12:06.436Z,102181.38
2023-05-04T01:14:34.686Z,102179.38
2023-05-04T01:17:06.513Z,102172.41
2023-05-04T01:19:33.891Z,102176.53
2023-05-04T01:22:02.588Z,102178.22
2023-05-04T01:24:29.655Z,102170.53
2023-05-04T01:27:03.937Z,102180.78
2023-05-04T01:29:58.796Z,102173.06
2023-05-04T01:32:28.009Z,102178.22
2023-05-04T01:34:55.189Z,102178.50
2023-05-04T01:37:21.615Z,102176.16
2023-05-04T01:39:48.010Z,102176.56
2023-05-04T01:42:14.429Z,102175.31
2023-05-04T01:44:42.779Z,102168.44
2023-05-04T01:47:09.813Z,102166.53
2023-05-04T01:49:36.650Z,102171.50
2023-05-04T01:52:03.126Z,102167.22
2023-05-04T01:54:29.547Z,102167.84
2023-05-04T01:56:57.185Z,102168.91
2023-05-04T01:59:23.609Z,102168.06
2023-05-04T02:01:50.070Z,102161.22
2023-05-04T02:04:16.545Z,102162.50
2023-05-04T02:06:43.016Z,102168.06
2023-05-04T02:09:09.430Z,102161.88
2023-05-04T02:11:35.935Z,102166.78
2023-05-04T02:14:02.436Z,102166.78
2023-05-04T02:16:28.999Z,102164.69
2023-05-04T02:18:55.632Z,102165.56
2023-05-04T02:21:22.103Z,102165.59
2023-05-04T02:23:48.623Z,102169.66
2023-05-04T02:26:15.083Z,102169.66
2023-05-04T02:28:41.516Z,102169.69
2023-05-04T02:31:08.875Z,102169.47
2023-05-04T02:33:35.330Z,102173.34
2023-05-04T02:36:01.738Z,102169.28
2023-05-04T02:38:28.263Z,102172.94
2023-05-04T02:40:54.853Z,102169.94
2023-05-04T02:43:21.271Z,102162.88
2023-05-04T02:45:47.720Z,102166.34
2023-05-04T02:48:14.201Z,102169.38
2023-05-04T02:50:41.018Z,102168.31
2023-05-04T02:53:07.478Z,102161.72
2023-05-04T02:55:33.904Z,102163.81
2023-05-04T02:58:00.361Z,102168.94
2023-05-04T03:00:26.767Z,102158.91
2023-05-04T03:02:53.246Z,102170.03
2023-05-04T03:05:19.744Z,102157.00
2023-05-04T03:07:46.247Z,102158.25
2023-05-04T03:10:12.740Z,102158.31
2023-05-04T03:12:39.162Z,102151.91
2023-05-04T03:15:06.066Z,102159.38
2023-05-04T03:17:32.606Z,102161.50
2023-05-04T03:19:59.090Z,102152.56
2023-05-04T03:22:27.312Z,102154.25
2023-05-04T03:24:54.068Z,102151.28
2023-05-04T03:27:20.569Z,102154.50
2023-05-04T03:29:47.037Z,102150.66
2023-05-04T03:32:13.845Z,102150.88
2023-05-04T03:34:41.313Z,102150.91
2023-05-04T03:37:08.392Z,102149.41
2023-05-04T03:39:34.953Z,102157.06
2023-05-04T03:42:01.378Z,102147.91
2023-05-04T03:44:27.826Z,102142.34
2023-05-04T03:46:54.234Z,102146.00
2023-05-04T03:49:21.123Z,102148.97
2023-05-04T03:51:47.607Z,102149.00
2023-05-04T03:54:14.071Z,102149.81
2023-05-04T03:56:40.489Z,102149.63
2023-05-04T03:59:08.019Z,102140.25
2023-05-04T04:01:34.752Z,102147.91
2023-05-04T04:04:02.338Z,102147.25
2023-05-04T04:06:29.058Z,102144.91
2023-05-04T04:08:55.533Z,102148.56
2023-05-04T04:11:21.976Z,102140.25
2023-05-04T04:13:48.405Z,102143.63
2023-05-04T04:16:14.856Z,102143.63
2023-05-04T04:18:41.281Z,102139.38
2023-05-04T04:21:07.770Z,102147.47
2023-05-04T04:23:34.309Z,102140.63
2023-05-04T04:26:01.493Z,102144.03
2023-05-04T04:28:28.834Z,102139.75
2023-05-04T04:30:55.293Z,102142.34
2023-05-04T04:33:21.878Z,102145.06
2023-05-04T04:35:48.526Z,102145.72
2023-05-04T04:38:14.933Z,102145.28
2023-05-04T04:40:41.417Z,102151.91
2023-05-04T04:43:08.057Z,102155.97
2023-05-04T04:45:35.173Z,102151.03
2023-05-04T04:48:01.901Z,102155.97
2023-05-04T04:50:29.581Z,102155.53
2023-05-04T04:52:56.257Z,102151.22
2023-05-04T04:55:23.548Z,102150.28
2023-05-04T04:57:50.714Z,102148.09
2023-05-04T05:00:17.745Z,102152.13
2023-05-04T05:02:44.264Z,102149.72
2023-05-04T05:05:11.158Z,102139.75
2023-05-04T05:07:37.656Z,102140.53
2023-05-04T05:10:04.773Z,102143.00
2023-05-04T05:12:31.493Z,102150.09
2023-05-04T05:14:57.923Z,102143.97
2023-05-04T05:17:26.136Z,102141.66
2023-05-04T05:19:52.631Z,102141.72
2023-05-04T05:22:19.051Z,102136.56
2023-05-04T05:24:45.872Z,102139.59
2023-05-04T05:27:12.360Z,102142.38
2023-05-04T05:29:38.775Z,102134.44
2023-05-04T05:32:05.573Z,102130.09
2023-05-04T05:34:32.950Z,102131.31
2023-05-04T05:36:59.424Z,102130.81
2023-05-04T05:39:25.857Z,102132.66
2023-05-04T05:41:56.444Z,102130.97
2023-05-04T05:44:22.836Z,102126.34
2023-05-04T05:46:49.254Z,102133.38
2023-05-04T05:49:15.674Z,102128.97
2023-05-04T05:51:42.076Z,102133.28
2023-05-04T05:54:08.550Z,102128.94
2023-05-04T05:56:34.936Z,102130.03
2023-05-04T05:59:01.375Z,102129.56
2023-05-04T06:01:27.775Z,102130.34
2023-05-04T06:03:54.439Z,102119.84
2023-05-04T06:06:21.051Z,102123.06
2023-05-04T06:08:47.490Z,102115.44
2023-05-04T06:11:13.976Z,102113.28
2023-05-04T06:13:40.461Z,102115.91
2023-05-04T06:16:06.896Z,102119.94
2023-05-04T06:18:33.425Z,102111.91
2023-05-04T06:21:00.708Z,102124.84
2023-05-04T06:23:28.725Z,102119.31
2023-05-04T06:25:55.142Z,102129.19
2023-05-04T06:28:21.748Z,102131.19
2023-05-04T06:30:48.467Z,102130.94
2023-05-04T06:33:15.170Z,102130.66
2023-05-04T06:35:42.028Z,102132.63
2023-05-04T06:38:08.490Z,102121.63
2023-05-04T06:40:34.942Z,102121.03
2023-05-04T06:43:01.434Z,102119.03
2023-05-04T06:45:27.929Z,102123.53
2023-05-04T06:47:54.453Z,102126.28
2023-05-04T06:50:23.682Z,102122.97
2023-05-04T06:52:50.087Z,102119.53
2023-05-04T06:55:16.579Z,102126.25
2023-05-04T06:57:43.019Z,102121.69
2023-05-04T07:00:10.603Z,102121.25
2023-05-04T07:02:37.044Z,102119.94
2023-05-04T07:05:03.896Z,102126.81
2023-05-04T07:07:30.391Z,102120.63
2023-05-04T07:09:56.822Z,102122.22
2023-05-04T07:12:23.234Z,102132.94
2023-05-04T07:14:49.721Z,102127.09
2023-05-04T07:17:16.237Z,102122.31
2023-05-04T07:19:43.005Z,102127.38
2023-05-04T07:22:09.419Z,102112.94
2023-05-04T07:24:35.852Z,102109.00
2023-05-04T07:27:02.255Z,102116.66
2023-05-04T07:29:28.685Z,102104.47
2023-05-04T07:31:55.251Z,102105.91
2023-05-04T07:34:27.423Z,102099.56
2023-05-04T07:37:00.633Z,102103.25
2023-05-04T07:39:27.060Z,102101.56
2023-05-04T07:41:54.357Z,102096.25
2023-05-04T07:44:20.770Z,102098.81
2023-05-04T07:46:47.359Z,102089.22
2023-05-04T07:49:13.786Z,102088.84
2023-05-04T07:51:40.208Z,102089.28
2023-05-04T07:54:06.666Z,102090.88
2023-05-04T07:56:33.099Z,102086.84
2023-05-04T07:58:59.508Z,102088.22
2023-05-04T08:01:26.200Z,102080.25
2023-05-04T08:03:52.664Z,102086.22
2023-05-04T08:06:19.094Z,102084.03
2023-05-04T08:08:46.408Z,102086.56
2023-05-04T08:11:20.156Z,102084.47
2023-05-04T08:13:50.610Z,102085.28
2023-05-04T08:16:17.434Z,102077.84
2023-05-04T08:18:43.914Z,102074.19
2023-05-04T08:21:10.332Z,102083.25
2023-05-04T08:23:36.874Z,102070.31
2023-05-04T08:26:04.448Z,102074.19
2023-05-04T08:28:31.168Z,102082.31
2023-05-04T08:30:57.863Z,102074.72
2023-05-04T08:33:24.301Z,102076.19
2023-05-04T08:35:51.441Z,102078.94
2023-05-04T08:38:17.880Z,102072.63
2023-05-04T08:40:44.298Z,102065.06
2023-05-04T08:43:10.987Z,102073.34
2023-05-04T08:45:41.320Z,102070.31
2023-05-04T08:48:08.721Z,102060.53
2023-05-04T08:50:37.251Z,102063.81
2023-05-04T08:53:06.954Z,102046.81
2023-05-04T08:55:36.537Z,102049.81
2023-05-04T08:58:08.267Z,102051.06
2023-05-04T09:00:36.428Z,102057.03
2023-05-04T09:03:04.763Z,102044.84
2023-05-04T09:05:32.154Z,102047.88
2023-05-04T09:07:58.864Z,102053.97
2023-05-04T09:10:27.438Z,102047.50
2023-05-04T09:12:58.047Z,102049.59
2023-05-04T09:15:24.572Z,102048.53
2023-05-04T09:20:23.289Z,102047.28
2023-05-04T09:23:09.605Z,102039.56
2023-05-04T09:25:50.271Z,102043.28
2023-05-04T09:28:18.146Z,102034.59
2023-05-04T09:30:46.169Z,102041.34
2023-05-04T09:33:13.062Z,102043.63
2023-05-04T09:35:44.373Z,102039.28
2023-05-04T09:38:10.840Z,102035.41
2023-05-04T09:40:43.465Z,102038.44
2023-05-04T09:43:10.738Z,102032.09
2023-05-04T09:45:44.669Z,102026.19
2023-05-04T09:48:28.991Z,102029.63
2023-05-04T09:50:57.391Z,102027.16
2023-05-04T09:53:25.378Z,102020.03
2023-05-04T09:56:08.450Z,102007.50
2023-05-04T09:58:34.990Z,102010.53
2023-05-04T10:01:01.419Z,102011.97
2023-05-04T10:03:28.713Z,102004.16
2023-05-04T10:05:55.369Z,102001.94
2023-05-04T10:08:22.490Z,101995.50
2023-05-04T10:10:49.023Z,102000.22
2023-05-04T10:13:16.884Z,101993.97
2023-05-04T10:16:18.414Z,101994.44
2023-05-04T10:19:11.305Z,101988.09
2023-05-04T10:22:10.337Z,101981.38
2023-05-04T10:25:24.998Z,101984.47
2023-05-04T10:28:09.220Z,101984.88
2023-05-04T10:30:36.371Z,101984.13
2023-05-04T10:33:02.985Z,101986.66
2023-05-04T10:35:29.514Z,101971.81
2023-05-04T10:37:56.604Z,101967.34
2023-05-04T10:40:53.733Z,101957.03
2023-05-04T10:43:24.149Z,101961.09
2023-05-04T10:45:51.471Z,101953.69
2023-05-04T10:48:18.013Z,101950.97
2023-05-04T10:50:46.557Z,101939.13
2023-05-04T10:53:14.818Z,101933.75
2023-05-04T10:55:46.331Z,101945.25
2023-05-04T10:58:16.441Z,101931.16
2023-05-04T11:00:45.257Z,101923.50
2023-05-04T11:03:12.467Z,101917.22
2023-05-04T11:05:43.261Z,101923.94
2023-05-04T11:08:20.654Z,101922.66
2023-05-04T11:10:48.456Z,101920.34
2023-05-04T11:13:16.466Z,101921.06
2023-05-04T11:15:50.171Z,101912.00
2023-05-04T11:18:26.575Z,101916.78
2023-05-04T11:20:53.107Z,101913.78
2023-05-04T11:23:19.564Z,101902.34
2023-05-04T11:25:46.025Z,101906.59
2023-05-04T11:28:14.663Z,101901.19
2023-05-04T11:30:42.308Z,101903.53
2023-05-04T11:33:13.547Z,101897.84
2023-05-04T11:35:42.305Z,101895.59
2023-05-04T11:38:08.735Z,101897.31
2023-05-04T11:40:36.541Z,101892.44
2023-05-04T11:43:04.128Z,101896.31
2023-05-04T11:45:32.455Z,101886.63
2023-05-04T11:47:59.624Z,101873.44
2023-05-04T11:50:27.800Z,101885.00
2023-05-04T11:53:08.916Z,101880.31
2023-05-04T11:55:37.457Z,101869.72
2023-05-04T11:58:06.041Z,101881.22
2023-05-04T12:00:44.194Z,101875.88
2023-05-04T12:03:14.119Z,101874.19
2023-05-04T12:05:55.135Z,101867.47
2023-05-04T12:08:22.165Z,101860.72
2023-05-04T12:10:48.578Z,101863.94
2023-05-04T12:13:16.894Z,101859.59
2023-05-04T12:15:43.391Z,101857.59
2023-05-04T12:18:29.188Z,101861.78
2023-05-04T12:20:55.592Z,101863.13
2023-05-04T12:23:21.998Z,101857.44
2023-05-04T12:25:57.683Z,101859.75
2023-05-04T12:28:26.740Z,101858.44
2023-05-04T12:30:53.388Z,101857.09
2023-05-04T12:33:19.811Z,101861.66
2023-05-04T12:35:46.774Z,101848.22
2023-05-04T12:38:13.291Z,101852.94
2023-05-04T12:40:39.705Z,101855.94
2023-05-04T12:43:06.251Z,101851.91
2023-05-04T12:45:32.656Z,101842.34
2023-05-04T12:47:59.090Z,101855.41
2023-05-04T12:50:25.752Z,101843.56
2023-05-04T12:52:52.144Z,101834.25
2023-05-04T12:55:18.691Z,101835.09
2023-05-04T12:57:45.107Z,101841.88
2023-05-04T13:00:12.295Z,101827.28
2023-05-04T13:02:38.744Z,101831.63
2023-05-04T13:05:06.891Z,101825.25
2023-05-04T13:07:34.382Z,101826.41
2023-05-04T13:10:01.177Z,101820.22
2023-05-04T13:12:27.603Z,101817.13
2023-05-04T13:14:55.744Z,101818.19
2023-05-04T13:17:22.209Z,101805.31
2023-05-04T13:19:48.770Z,101807.59
2023-05-04T13:22:15.169Z,101798.59
2023-05-04T13:24:41.674Z,101810.56
2023-05-04T13:27:08.128Z,101809.56
2023-05-04T13:29:34.694Z,101799.28
2023-05-04T13:32:01.198Z,101799.16
2023-05-04T13:34:27.626Z,101797.31
2023-05-04T13:36:54.048Z,101788.91
2023-05-04T13:39:21.885Z,101783.94
2023-05-04T13:41:48.719Z,101780.16
2023-05-04T13:44:15.195Z,101773.81
2023-05-04T13:46:41.735Z,101768.59
2023-05-04T13:49:08.236Z,101768.94
2023-05-04T13:51:34.981Z,101765.88
2023-05-04T13:54:02.832Z,101760.38
2023-05-04T13:56:29.694Z,101755.50
2023-05-04T13:58:56.071Z,101755.84
2023-05-04T14:01:23.545Z,101748.22
2023-05-04T14:03:50.065Z,101745.50
2023-05-04T14:06:16.524Z,101744.19
2023-05-04T14:08:42.951Z,101740.84
2023-05-04T14:11:09.397Z,101736.84
2023-05-04T14:13:35.810Z,101733.59
2023-05-04T14:16:02.239Z,101726.81
2023-05-04T14:18:28.919Z,101722.88
2023-05-04T14:20:55.877Z,101724.53
2023-05-04T14:23:22.312Z,101716.03
2023-05-04T14:25:53.367Z,101710.41
2023-05-04T14:28:19.809Z,101704.75
2023-05-04T14:30:46.296Z,101699.94
2023-05-04T14:33:12.759Z,101699.31
2023-05-04T14:35:42.749Z,101695.28
2023-05-04T14:38:09.947Z,101696.13
2023-05-04T14:40:36.389Z,101690.03
2023-05-04T14:43:02.797Z,101682.38
2023-05-04T14:45:29.243Z,101691.56
2023-05-04T14:47:55.752Z,101690.19
2023-05-04T14:50:22.367Z,101684.59
2023-05-04T14:52:48.766Z,101679.75
2023-05-04T14:55:15.329Z,101684.41
2023-05-04T14:57:41.783Z,101682.59
2023-05-04T15:00:09.316Z,101676.91
2023-05-04T15:02:38.380Z,101677.38
2023-05-04T15:05:05.469Z,101676.56
2023-05-04T15:07:31.894Z,101671.19
2023-05-04T15:09:58.376Z,101664.28
2023-05-04T15:12:26.301Z,101665.06
2023-05-04T15:14:52.811Z,101661.66
2023-05-04T15:17:20.179Z,101662.69
2023-05-04T15:19:46.770Z,101657.38
2023-05-04T15:22:13.226Z,101655.06
2023-05-04T15:24:39.654Z,101658.72
2023-05-04T15:27:06.180Z,101648.31
2023-05-04T15:29:32.623Z,101645.59
2023-05-04T15:31:59.191Z,101641.31
2023-05-04T15:34:25.715Z,101641.03
2023-05-04T15:36:52.511Z,101640.22
2023-05-04T15:39:18.941Z,101640.84
2023-05-04T15:41:45.473Z,101641.66
2023-05-04T15:44:11.938Z,101634.34
2023-05-04T15:46:38.601Z,101629.91
2023-05-04T15:49:05.453Z,101632.75
2023-05-04T15:51:32.037Z,101622.16
2023-05-04T15:53:58.709Z,101620.81
2023-05-04T15:56:25.128Z,101623.94
2023-05-04T15:58:51.557Z,101623.56
2023-05-04T16:01:18.014Z,101624.63
2023-05-04T16:03:45.620Z,101615.34
2023-05-04T16:06:12.614Z,101617.72
2023-05-04T16:08:39.310Z,101618.34
2023-05-04T16:11:07.462Z,101613.00
2023-05-04T16:13:33.947Z,101617.19
2023-05-04T16:16:00.571Z,101613.69
2023-05-04T16:18:26.992Z,101609.28
2023-05-04T16:20:54.681Z,101607.31
2023-05-04T16:23:21.231Z,101604.63
2023-05-04T16:25:47.660Z,101597.59
2023-05-04T16:28:14.059Z,101592.78
2023-05-04T16:30:42.512Z,101600.47
2023-05-04T16:33:08.983Z,101595.59
2023-05-04T16:35:36.610Z,101595.75
2023-05-04T16:38:03.934Z,101587.56
2023-05-04T16:40:33.314Z,101584.72
2023-05-04T16:42:59.975Z,101585.06
2023-05-04T16:45:31.210Z,101585.53
2023-05-04T16:47:58.668Z,101583.03
2023-05-04T16:50:25.469Z,101584.06
2023-05-04T16:52:51.886Z,101587.91
2023-05-04T16:55:18.901Z,101585.56
2023-05-04T16:57:45.908Z,101575.69
2023-05-04T17:00:13.606Z,101576.19
2023-05-04T17:02:40.280Z,101586.25
2023-05-04T17:05:10.024Z,101575.84
2023-05-04T17:07:39.494Z,101571.84
2023-05-04T17:10:07.820Z,101578.69
2023-05-04T17:12:34.552Z,101569.66
2023-05-04T17:15:00.999Z,101577.34
2023-05-04T17:17:27.525Z,101581.88
2023-05-04T17:19:53.999Z,101580.63
2023-05-04T17:22:20.530Z,101582.63
2023-05-04T17:24:46.980Z,101575.34
2023-05-04T17:27:13.424Z,101564.47
2023-05-04T17:29:41.015Z,101578.69
2023-05-04T17:32:10.791Z,101576.53
2023-05-04T17:34:37.652Z,101569.50
2023-05-04T17:37:04.152Z,101574.69
2023-05-04T17:39:31.634Z,101576.84
2023-05-04T17:41:58.560Z,101577.81
2023-05-04T17:44:25.864Z,101577.91
2023-05-04T17:46:52.302Z,101570.19
2023-05-04T17:49:19.228Z,101572.16
2023-05-04T17:51:46.439Z,101577.97
2023-05-04T17:54:12.838Z,101576.94
2023-05-04T17:56:39.247Z,101578.69
2023-05-04T17:59:05.682Z,101569.59
2023-05-04T18:01:32.354Z,101584.44
2023-05-04T18:03:59.095Z,101572.03
2023-05-04T18:06:26.063Z,101578.38
2023-05-04T18:08:52.496Z,101578.00
2023-05-04T18:11:18.947Z,101579.72
2023-05-04T18:13:45.388Z,101579.72
2023-05-04T18:16:11.887Z,101578.69
2023-05-04T18:18:38.366Z,101578.38
2023-05-04T18:21:04.996Z,101586.34
2023-05-04T18:23:31.435Z,101583.97
2023-05-04T18:25:57.898Z,101584.91
2023-05-04T18:28:24.393Z,101586.63
2023-05-04T18:30:50.844Z,101586.53
2023-05-04T18:33:17.263Z,101591.78
2023-05-04T18:35:43.706Z,101595.34
2023-05-04T18:38:10.559Z,101600.72
2023-05-04T18:40:36.989Z,101598.06
2023-05-04T18:43:03.473Z,101600.06
2023-05-04T18:45:29.935Z,101596.16
2023-05-04T18:47:56.439Z,101593.75
2023-05-04T18:50:22.853Z,101603.50
2023-05-04T18:52:49.293Z,101607.63
2023-05-04T18:55:15.703Z,101603.53
2023-05-04T18:57:42.132Z,101601.94
2023-05-04T19:00:09.267Z,101603.44
2023-05-04T19:02:36.870Z,101606.44
2023-05-04T19:05:03.424Z,101608.19
2023-05-04T19:07:29.849Z,101613.63
2023-05-04T19:09:56.353Z,101612.03
2023-05-04T19:12:22.787Z,101604.16
2023-05-04T19:14:50.423Z,101616.47
2023-05-04T19:17:18.246Z,101612.91
2023-05-04T19:19:44.678Z,101612.91
2023-05-04T19:22:13.184Z,101616.19
2023-05-04T19:24:39.871Z,101614.66
2023-05-04T19:27:06.385Z,101613.31
2023-05-04T19:29:32.971Z,101621.28
2023-05-04T19:32:01.319Z,101604.41
2023-05-04T19:34:32.244Z,101613.38
2023-05-04T19:36:59.224Z,101610.34
2023-05-04T19:39:25.809Z,101617.75
2023-05-04T19:41:52.292Z,101616.66
2023-05-04T19:44:18.699Z,101617.66
2023-05-04T19:46:47.228Z,101615.84
2023-05-04T19:49:13.721Z,101618.06
2023-05-04T19:51:40.136Z,101622.69
2023-05-04T19:54:06.606Z,101619.09
2023-05-04T19:56:33.410Z,101614.03
2023-05-04T19:58:59.823Z,101618.59
2023-05-04T20:01:26.330Z,101611.31
2023-05-04T20:03:52.788Z,101615.81
2023-05-04T20:06:19.183Z,101618.41
2023-05-04T20:08:45.594Z,101612.63
2023-05-04T20:11:13.126Z,101612.59
2023-05-04T20:13:39.626Z,101610.31
2023-05-04T20:16:06.099Z,101606.28
2023-05-04T20:18:32.510Z,101614.53
2023-05-04T20:20:58.883Z,101613.91
2023-05-04T20:23:25.344Z,101612.22
2023-05-04T20:25:51.926Z,101611.16
2023-05-04T20:28:18.307Z,101615.59
2023-05-04T20:30:46.156Z,101615.03
2023-05-04T20:33:12.678Z,101615.91
2023-05-04T20:35:42.053Z,101611.16
2023-05-04T20:38:08.760Z,101609.53
2023-05-04T20:40:35.188Z,101604.22
2023-05-04T20:43:01.641Z,101605.50
2023-05-04T20:45:29.713Z,101606.09
2023-05-04T20:47:56.519Z,101599.91
2023-05-04T20:50:23.041Z,101599.50
2023-05-04T20:52:49.647Z,101590.22
2023-05-04T20:55:16.486Z,101593.94
2023-05-04T20:57:42.978Z,101596.63
2023-05-04T21:00:10.036Z,101600.47
2023-05-04T21:02:36.654Z,101590.38
2023-05-04T21:05:03.287Z,101593.22
2023-05-04T21:07:29.704Z,101593.84
2023-05-04T21:09:57.681Z,101581.72
2023-05-04T21:12:24.860Z,101592.00
2023-05-04T21:14:51.639Z,101593.75
2023-05-04T21:17:18.118Z,101588.81
2023-05-04T21:19:44.538Z,101597.19
2023-05-04T21:22:10.961Z,101599.13
2023-05-04T21:24:37.372Z,101590.81
2023-05-04T21:27:03.787Z,101599.06
2023-05-04T21:29:30.380Z,101587.56
2023-05-04T21:31:57.352Z,101588.41
2023-05-04T21:34:23.917Z,101597.47
2023-05-04T21:36:50.403Z,101588.19
2023-05-04T21:39:17.483Z,101592.69
2023-05-04T21:41:43.908Z,101596.47
2023-05-04T21:44:10.310Z,101593.41
2023-05-04T21:46:36.750Z,101590.06
2023-05-04T21:49:03.202Z,101594.06
2023-05-04T21:51:29.904Z,101587.31
2023-05-04T21:53:56.324Z,101586.50
2023-05-04T21:56:22.736Z,101594.72
2023-05-04T21:58:50.027Z,101589.94
2023-05-04T22:01:17.566Z,101595.28
2023-05-04T22:03:44.682Z,101595.56
2023-05-04T22:06:11.206Z,101600.97
2023-05-04T22:08:38.034Z,101597.34
2023-05-04T22:11:04.525Z,101598.44
2023-05-04T22:13:30.969Z,101594.53
2023-05-04T22:15:57.357Z,101586.44
2023-05-04T22:18:23.843Z,101591.56
2023-05-04T22:20:50.802Z,101584.53
2023-05-04T22:23:17.232Z,101588.75
2023-05-04T22:25:43.667Z,101586.75
2023-05-04T22:28:10.077Z,101594.91
2023-05-04T22:30:36.599Z,101594.66
2023-05-04T22:33:03.530Z,101594.66
2023-05-04T22:35:31.583Z,101601.94
2023-05-04T22:37:58.078Z,101597.72
2023-05-04T22:40:24.587Z,101603.09
2023-05-04T22:42:50.992Z,101605.06
2023-05-04T22:45:20.216Z,101598.94
2023-05-04T22:47:47.000Z,101603.44
2023-05-04T22:50:14.031Z,101609.66
2023-05-04T22:52:41.140Z,101608.81
2023-05-04T22:55:08.758Z,101606.56
2023-05-04T22:57:35.361Z,101605.13
2023-05-04T23:00:01.803Z,101601.47
2023-05-04T23:02:28.373Z,101602.06
2023-05-04T23:04:54.904Z,101601.19
2023-05-04T23:07:21.343Z,101603.72
2023-05-04T23:09:47.756Z,101604.59
2023-05-04T23:12:15.201Z,101602.03
2023-05-04T23:14:41.942Z,101604.59
2023-05-04T23:17:08.487Z,101608.50
2023-05-04T23:19:34.914Z,101605.94
2023-05-04T23:22:01.346Z,101605.09
2023-05-04T23:24:27.772Z,101600.88
2023-05-04T23:26:54.198Z,101605.91
2023-05-04T23:29:20.845Z,101600.00
2023-05-04T23:31:47.337Z,101611.19
2023-05-04T23:34:13.849Z,101600.84
2023-05-04T23:36:40.262Z,101602.25
2023-05-04T23:39:06.754Z,101605.91
2023-05-04T23:41:33.360Z,101603.38
2023-05-04T23:43:59.947Z,101593.22
2023-05-04T23:46:26.408Z,101597.97
2023-05-04T23:48:52.930Z,101589.84
2023-05-04T23:51:19.340Z,101598.53
2023-05-04T23:53:45.772Z,101591.47
2023-05-04T23:56:12.989Z,101590.91
2023-05-04T23:58:39.499Z,101600.22
